Time;durP1;ratioP1;P1;durP2;ratioP2;P2;SDS_P1;SDS_P2;PMS_P1;PMS_P2;Temp;Humidity;BMP_temperature;BMP_pressure;BME280_temperature;BME280_humidity;BME280_pressure;Samples;Min_cycle;Max_cycle;Signal;HPM_P1;HPM_P2
2022/04/09 00:01:04;;;;;;;8.43;3.47;;;15.00;94.00;;;;;;5007652;28;20485;-71
2022/04/09 00:03:30;;;;;;;8.85;4.43;;;15.00;95.00;;;;;;4990755;28;20030;-72
2022/04/09 00:05:56;;;;;;;7.38;3.65;;;15.10;94.40;;;;;;4975591;28;20041;-73
2022/04/09 00:08:22;;;;;;;5.30;2.88;;;15.10;94.10;;;;;;4992871;28;20110;-75
2022/04/09 00:10:48;;;;;;;9.95;3.95;;;15.20;93.20;;;;;;4992872;28;20477;-73
2022/04/09 00:13:14;;;;;;;7.82;3.95;;;15.20;93.00;;;;;;5008247;28;20041;-74
2022/04/09 00:15:41;;;;;;;6.32;3.25;;;15.30;93.40;;;;;;5008341;28;20477;-72
2022/04/09 00:18:07;;;;;;;6.55;2.78;;;15.40;92.40;;;;;;4992665;28;20057;-74
2022/04/09 00:20:33;;;;;;;6.68;2.90;;;15.40;92.20;;;;;;4992886;28;20038;-73
2022/04/09 00:22:59;;;;;;;9.43;2.90;;;15.50;92.40;;;;;;4992461;28;20034;-73
2022/04/09 00:25:25;;;;;;;6.15;2.67;;;15.50;92.30;;;;;;4991668;28;20026;-74
2022/04/09 00:27:52;;;;;;;6.03;2.25;;;15.50;91.90;;;;;;4992754;28;20042;-70
2022/04/09 00:30:19;;;;;;;4.60;2.20;;;15.60;91.30;;;;;;5007896;28;20109;-71
2022/04/09 00:32:45;;;;;;;5.55;2.80;;;15.60;91.60;;;;;;5000352;28;20033;-69
2022/04/09 00:35:11;;;;;;;7.43;2.20;;;15.70;91.70;;;;;;5011158;28;20381;-70
2022/04/09 00:37:44;;;;;;;8.18;2.88;;;15.70;91.80;;;;;;5010540;28;20422;-74
2022/04/09 00:40:18;;;;;;;7.60;3.22;;;15.70;91.70;;;;;;5012327;28;20073;-74
2022/04/09 00:42:45;;;;;;;4.97;2.88;;;15.70;91.70;;;;;;4994385;28;20034;-73
2022/04/09 00:45:12;;;;;;;3.97;2.78;;;15.70;91.50;;;;;;5027391;28;20127;-73
2022/04/09 00:47:38;;;;;;;7.45;3.20;;;15.70;90.60;;;;;;5010854;28;20030;-71
2022/04/09 00:50:08;;;;;;;7.10;2.92;;;15.80;91.10;;;;;;5027049;28;20050;-73
2022/04/09 00:52:38;;;;;;;8.18;3.10;;;15.80;91.20;;;;;;4994481;28;20490;-73
2022/04/09 00:55:04;;;;;;;3.38;2.15;;;15.80;91.50;;;;;;5010718;28;20137;-74
2022/04/09 00:57:34;;;;;;;5.70;2.40;;;15.80;91.50;;;;;;5012173;28;20072;-74
2022/04/09 01:00:11;;;;;;;7.05;3.00;;;15.80;91.90;;;;;;5011904;28;20152;-74
2022/04/09 01:02:45;;;;;;;6.93;3.10;;;15.70;92.10;;;;;;5011871;28;20032;-73
2022/04/09 01:05:13;;;;;;;9.48;3.25;;;15.70;91.90;;;;;;5010785;28;20095;-73
2022/04/09 01:07:39;;;;;;;9.55;3.22;;;15.70;92.00;;;;;;5010694;28;20026;-72
2022/04/09 01:10:11;;;;;;;9.45;4.20;;;15.70;93.10;;;;;;5026557;28;20492;-74
2022/04/09 01:12:37;;;;;;;7.25;3.30;;;15.60;93.50;;;;;;5027106;28;20096;-74
2022/04/09 01:15:07;;;;;;;8.18;3.53;;;15.60;93.10;;;;;;5011623;28;20057;-71
2022/04/09 01:17:38;;;;;;;6.00;3.67;;;15.60;92.70;;;;;;5031147;28;20026;-74
2022/04/09 01:20:21;;;;;;;6.13;2.53;;;15.60;92.70;;;;;;5014442;28;20030;-74
2022/04/09 01:22:49;;;;;;;5.25;2.75;;;15.60;93.80;;;;;;5031129;28;20033;-71
2022/04/09 01:25:20;;;;;;;4.97;2.50;;;15.60;93.10;;;;;;5014169;28;20029;-74
2022/04/09 01:27:49;;;;;;;6.25;2.75;;;15.60;93.20;;;;;;5014240;28;20041;-74
2022/04/09 01:30:54;;;;;;;5.45;2.63;;;15.60;93.30;;;;;;5030435;28;20470;-75
2022/04/09 01:33:21;;;;;;;8.40;2.90;;;15.60;93.50;;;;;;5030646;28;20061;-73
2022/04/09 01:35:49;;;;;;;5.53;2.50;;;15.50;93.90;;;;;;5015427;28;20419;-74
2022/04/09 01:38:16;;;;;;;7.15;2.80;;;15.50;94.50;;;;;;5015505;28;20088;-72
2022/04/09 01:40:42;;;;;;;7.43;3.22;;;15.50;94.00;;;;;;5030359;28;20044;-69
2022/04/09 01:43:11;;;;;;;8.13;3.28;;;15.50;93.80;;;;;;5013951;28;20105;-73
2022/04/09 01:45:37;;;;;;;10.18;3.10;;;15.40;94.30;;;;;;5013449;28;20044;-70
2022/04/09 01:48:10;;;;;;;4.35;2.35;;;15.40;94.20;;;;;;5007030;28;20054;-71
2022/04/09 01:50:36;;;;;;;5.63;3.00;;;15.30;94.20;;;;;;4995671;28;20022;-72
2022/04/09 01:53:04;;;;;;;6.03;2.70;;;15.30;94.80;;;;;;4994998;28;20096;-73
2022/04/09 01:55:30;;;;;;;8.57;3.58;;;15.20;95.00;;;;;;5005863;28;20030;-72
2022/04/09 01:57:57;;;;;;;7.57;2.85;;;15.10;95.30;;;;;;5010610;28;20070;-68
2022/04/09 02:00:27;;;;;;;6.47;3.10;;;15.10;95.50;;;;;;4997223;28;20506;-72
2022/04/09 02:02:54;;;;;;;6.55;2.72;;;15.00;95.40;;;;;;5013098;28;20130;-70
2022/04/09 02:05:20;;;;;;;6.53;3.15;;;15.00;95.70;;;;;;5014081;28;20117;-72
2022/04/09 02:07:47;;;;;;;6.53;2.85;;;15.00;96.00;;;;;;5013384;28;20387;-73
2022/04/09 02:10:18;;;;;;;8.02;3.40;;;14.80;96.70;;;;;;5013110;28;20373;-73
2022/04/09 02:12:45;;;;;;;5.90;2.88;;;14.80;97.40;;;;;;5009497;28;20403;-72
2022/04/09 02:15:16;;;;;;;8.82;2.90;;;14.70;97.70;;;;;;5001731;28;20044;-73
2022/04/09 02:17:43;;;;;;;6.50;2.55;;;14.60;98.10;;;;;;5013245;28;20037;-73
2022/04/09 02:20:11;;;;;;;8.65;2.60;;;14.60;98.30;;;;;;5029381;28;20381;-71
2022/04/09 02:22:39;;;;;;;7.32;2.42;;;14.60;98.80;;;;;;5006554;28;20448;-73
2022/04/09 02:25:11;;;;;;;9.02;2.85;;;14.60;99.40;;;;;;5008266;28;20593;-73
2022/04/09 02:27:37;;;;;;;7.83;3.73;;;14.60;99.70;;;;;;5003874;28;20121;-73
2022/04/09 02:30:11;;;;;;;8.48;4.03;;;14.60;99.90;;;;;;4995233;28;20066;-72
2022/04/09 02:32:58;;;;;;;9.85;3.72;;;14.60;99.90;;;;;;4994999;28;20026;-74
2022/04/09 02:35:28;;;;;;;12.80;5.45;;;14.70;99.90;;;;;;5013112;28;20030;-72
2022/04/09 02:38:02;;;;;;;8.25;4.18;;;14.70;99.90;;;;;;5017122;28;20023;-70
2022/04/09 02:40:33;;;;;;;7.45;3.20;;;14.70;99.90;;;;;;5005080;28;20045;-71
2022/04/09 02:42:59;;;;;;;8.98;2.63;;;14.70;99.90;;;;;;5015854;28;20064;-68
2022/04/09 02:45:26;;;;;;;5.05;2.67;;;14.80;99.90;;;;;;5013277;28;20041;-71
2022/04/09 02:47:58;;;;;;;8.30;2.90;;;14.90;99.90;;;;;;4997298;28;20026;-72
2022/04/09 02:50:29;;;;;;;5.00;2.30;;;14.90;99.90;;;;;;4990309;28;20041;-72
2022/04/09 02:53:01;;;;;;;6.20;2.40;;;15.00;99.60;;;;;;5005022;28;20481;-69
2022/04/09 02:55:31;;;;;;;8.95;2.78;;;15.00;99.60;;;;;;5026399;28;20044;-72
2022/04/09 02:57:56;;;;;;;8.80;2.60;;;15.00;99.50;;;;;;5012354;28;20018;-73
2022/04/09 03:00:27;;;;;;;5.30;2.30;;;15.00;99.80;;;;;;5012545;28;20038;-72
2022/04/09 03:02:53;;;;;;;6.45;2.58;;;15.00;99.90;;;;;;5012727;28;20040;-72
2022/04/09 03:05:34;;;;;;;8.20;2.78;;;14.90;99.90;;;;;;4998063;28;20037;-71
2022/04/09 03:08:00;;;;;;;7.82;2.63;;;14.90;99.90;;;;;;5013542;28;20447;-69
2022/04/09 03:10:27;;;;;;;6.85;2.83;;;14.90;99.90;;;;;;4998211;28;20063;-73
2022/04/09 03:12:53;;;;;;;7.30;3.10;;;14.90;99.90;;;;;;4993841;28;20062;-71
2022/04/09 03:15:19;;;;;;;6.18;3.17;;;14.90;99.90;;;;;;4994128;28;20015;-73
2022/04/09 03:17:49;;;;;;;11.68;3.47;;;14.80;99.90;;;;;;5012113;28;20048;-72
2022/04/09 03:20:17;;;;;;;8.30;3.60;;;14.80;99.90;;;;;;5005547;28;20042;-73
2022/04/09 03:22:47;;;;;;;8.00;3.63;;;14.70;99.90;;;;;;5007303;28;20518;-71
2022/04/09 03:25:20;;;;;;;11.77;3.75;;;14.70;99.90;;;;;;5006149;28;20116;-72
2022/04/09 03:27:50;;;;;;;8.05;3.15;;;14.60;99.90;;;;;;5006962;28;20038;-70
2022/04/09 03:30:21;;;;;;;6.45;3.03;;;14.60;99.90;;;;;;5006669;28;20365;-71
2022/04/09 03:32:52;;;;;;;5.00;2.70;;;14.50;99.90;;;;;;5005927;28;20121;-70
2022/04/09 03:35:26;;;;;;;7.68;3.33;;;14.50;99.90;;;;;;5022406;28;20304;-72
2022/04/09 03:37:56;;;;;;;10.55;3.40;;;14.40;99.90;;;;;;5006832;28;20041;-71
2022/04/09 03:40:31;;;;;;;10.40;3.47;;;14.40;99.90;;;;;;5010516;28;20515;-72
2022/04/09 03:42:57;;;;;;;7.85;3.25;;;14.40;99.90;;;;;;5010883;28;20033;-73
2022/04/09 03:45:24;;;;;;;9.43;3.80;;;14.40;99.90;;;;;;5011525;28;20030;-72
2022/04/09 03:47:51;;;;;;;10.07;3.58;;;14.30;99.90;;;;;;5011122;28;20030;-72
2022/04/09 03:50:17;;;;;;;7.80;3.90;;;14.30;99.90;;;;;;4994931;28;20044;-72
2022/04/09 03:52:53;;;;;;;6.15;3.28;;;14.30;99.90;;;;;;5011296;28;20079;-72
2022/04/09 03:55:25;;;;;;;8.25;4.00;;;14.30;99.90;;;;;;5011578;28;20041;-71
2022/04/09 03:57:51;;;;;;;7.68;3.13;;;14.30;99.90;;;;;;5010961;28;20030;-72
2022/04/09 04:00:21;;;;;;;8.88;3.58;;;14.30;99.90;;;;;;5010978;28;20611;-71
2022/04/09 04:02:51;;;;;;;7.18;3.72;;;14.30;99.90;;;;;;4995384;28;20058;-72
2022/04/09 04:05:19;;;;;;;11.65;4.05;;;14.30;99.90;;;;;;5010988;28;20034;-72
2022/04/09 04:07:48;;;;;;;8.25;4.45;;;14.40;99.90;;;;;;4993540;28;20038;-72
2022/04/09 04:10:17;;;;;;;7.80;3.22;;;14.30;99.90;;;;;;4985012;28;20045;-72
2022/04/09 04:12:47;;;;;;;11.25;3.28;;;14.30;99.90;;;;;;5011479;28;20038;-72
2022/04/09 04:15:15;;;;;;;7.75;3.78;;;14.30;99.90;;;;;;5010945;28;20096;-72
2022/04/09 04:17:45;;;;;;;7.10;3.42;;;14.40;99.90;;;;;;5010991;28;20026;-73
2022/04/09 04:20:17;;;;;;;6.95;3.55;;;14.40;99.90;;;;;;5010624;28;20037;-72
2022/04/09 04:22:45;;;;;;;7.18;3.72;;;14.50;99.90;;;;;;5011187;28;20038;-71
2022/04/09 04:25:20;;;;;;;7.38;3.42;;;14.60;99.90;;;;;;5011017;28;20034;-72
2022/04/09 04:27:51;;;;;;;7.95;3.55;;;14.80;99.90;;;;;;5000626;28;20034;-71
2022/04/09 04:30:19;;;;;;;6.15;2.97;;;14.90;99.90;;;;;;5024235;28;20534;-72
2022/04/09 04:32:46;;;;;;;7.05;3.03;;;15.10;99.90;;;;;;5010592;28;20088;-71
2022/04/09 04:35:14;;;;;;;10.68;3.78;;;15.10;99.90;;;;;;5010490;28;20041;-72
2022/04/09 04:37:44;;;;;;;11.35;3.60;;;15.20;99.90;;;;;;5027330;28;20038;-70
2022/04/09 04:40:13;;;;;;;11.93;3.92;;;15.30;99.90;;;;;;5010568;28;20052;-71
2022/04/09 04:42:45;;;;;;;7.95;3.78;;;15.70;99.90;;;;;;5011558;28;20026;-74
2022/04/09 04:45:13;;;;;;;7.28;3.90;;;15.70;99.30;;;;;;4995120;28;20030;-74
2022/04/09 04:47:48;;;;;;;10.88;4.07;;;16.60;97.90;;;;;;5011229;28;20497;-72
2022/04/09 04:50:19;;;;;;;8.50;3.85;;;17.30;95.20;;;;;;5010206;28;20566;-73
2022/04/09 04:52:46;;;;;;;9.77;3.53;;;17.90;92.80;;;;;;5027018;28;20033;-73
2022/04/09 04:55:14;;;;;;;8.32;4.00;;;18.00;91.30;;;;;;5010395;28;20029;-72
2022/04/09 04:57:54;;;;;;;10.70;3.92;;;18.50;91.00;;;;;;5004426;28;20156;-74
2022/04/09 05:00:33;;;;;;;7.90;3.88;;;19.20;87.80;;;;;;5009912;28;20046;-73
2022/04/09 05:03:03;;;;;;;14.90;5.47;;;19.50;83.50;;;;;;5010499;28;20095;-73
2022/04/09 05:05:37;;;;;;;12.65;6.55;;;19.80;81.80;;;;;;5010341;28;20121;-74
2022/04/09 05:08:05;;;;;;;11.75;5.22;;;20.60;80.00;;;;;;5010262;28;20065;-73
2022/04/09 05:10:32;;;;;;;14.10;6.20;;;20.60;75.70;;;;;;5010306;28;20112;-75
2022/04/09 05:13:01;;;;;;;15.90;6.00;;;20.50;75.10;;;;;;5010204;28;20116;-71
2022/04/09 05:15:29;;;;;;;9.48;4.78;;;20.10;76.30;;;;;;5000498;28;20079;-70
2022/04/09 05:17:56;;;;;;;15.35;5.78;;;20.10;78.40;;;;;;5009368;28;20030;-74
2022/04/09 05:20:23;;;;;;;11.23;5.47;;;19.70;78.10;;;;;;5009537;28;20041;-74
2022/04/09 05:22:55;;;;;;;14.48;5.45;;;19.20;81.00;;;;;;4977046;28;20037;-74
2022/04/09 05:25:22;;;;;;;14.30;6.07;;;19.10;83.90;;;;;;5026443;28;20042;-73
2022/04/09 05:27:51;;;;;;;12.68;6.15;;;19.00;84.50;;;;;;5009617;28;20112;-74
2022/04/09 05:30:29;;;;;;;12.57;6.25;;;18.90;86.00;;;;;;5010043;28;20109;-73
2022/04/09 05:32:55;;;;;;;14.30;5.93;;;18.90;83.80;;;;;;5010065;28;20042;-73
2022/04/09 05:35:21;;;;;;;15.57;5.38;;;18.60;84.40;;;;;;5009976;28;20044;-73
2022/04/09 05:37:52;;;;;;;10.25;4.20;;;18.40;86.70;;;;;;5009313;28;20475;-73
2022/04/09 05:40:22;;;;;;;7.13;3.97;;;18.40;86.70;;;;;;5009687;28;20500;-73
2022/04/09 05:42:52;;;;;;;11.43;3.97;;;18.30;88.60;;;;;;5009357;28;20344;-74
2022/04/09 05:45:18;;;;;;;11.52;3.97;;;18.20;89.10;;;;;;5007598;28;20100;-73
2022/04/09 05:47:46;;;;;;;7.63;4.03;;;18.10;90.30;;;;;;5011050;28;20448;-74
2022/04/09 05:50:18;;;;;;;9.68;4.22;;;18.00;91.00;;;;;;5009743;28;20049;-74
2022/04/09 05:52:45;;;;;;;7.13;3.72;;;18.10;90.30;;;;;;5005533;28;20129;-74
2022/04/09 05:55:14;;;;;;;9.25;4.40;;;18.10;90.60;;;;;;4995450;28;20052;-73
2022/04/09 05:57:45;;;;;;;11.18;4.40;;;18.10;91.10;;;;;;5009497;28;20108;-74
2022/04/09 06:00:16;;;;;;;10.48;4.13;;;18.30;90.30;;;;;;5004076;28;20133;-74
2022/04/09 06:02:55;;;;;;;11.85;4.28;;;18.40;90.40;;;;;;5011659;28;20030;-74
2022/04/09 06:05:34;;;;;;;9.48;3.70;;;18.40;90.00;;;;;;5012984;28;20487;-74
2022/04/09 06:08:02;;;;;;;10.43;3.90;;;18.40;89.80;;;;;;5013034;28;20038;-73
2022/04/09 06:10:32;;;;;;;10.95;4.63;;;18.40;90.00;;;;;;5005647;28;20431;-71
2022/04/09 06:12:58;;;;;;;10.55;4.30;;;18.40;90.70;;;;;;5004272;28;20065;-70
2022/04/09 06:15:26;;;;;;;8.65;4.22;;;18.50;90.80;;;;;;5029550;28;20038;-73
2022/04/09 06:18:10;;;;;;;9.20;4.60;;;18.60;90.60;;;;;;5012571;28;20056;-72
2022/04/09 06:20:37;;;;;;;9.23;3.90;;;18.70;90.70;;;;;;5029653;28;20084;-72
2022/04/09 06:23:06;;;;;;;10.93;4.45;;;18.70;90.90;;;;;;5012337;28;20026;-71
2022/04/09 06:25:33;;;;;;;12.00;4.25;;;18.70;88.90;;;;;;5012922;28;20026;-73
2022/04/09 06:28:01;;;;;;;11.48;4.88;;;18.80;88.40;;;;;;5028202;28;20025;-68
2022/04/09 06:30:29;;;;;;;11.82;4.47;;;18.80;86.40;;;;;;5012285;28;20030;-71
2022/04/09 06:33:01;;;;;;;10.65;4.45;;;18.90;87.00;;;;;;5011403;28;20026;-70
2022/04/09 06:35:32;;;;;;;15.02;5.18;;;18.90;87.40;;;;;;5012220;28;20434;-68
2022/04/09 06:37:59;;;;;;;9.90;4.80;;;19.10;88.40;;;;;;5012327;28;20026;-71
2022/04/09 06:40:28;;;;;;;12.80;5.38;;;19.20;88.40;;;;;;5011825;28;20041;-70
2022/04/09 06:42:56;;;;;;;9.68;5.20;;;19.20;87.00;;;;;;5012884;28;20041;-72
2022/04/09 06:45:40;;;;;;;13.73;5.20;;;19.20;84.60;;;;;;5013946;28;20056;-73
2022/04/09 06:48:36;;;;;;;9.25;4.35;;;19.30;86.50;;;;;;5040083;28;20092;-71
2022/04/09 06:51:22;;;;;;;11.30;5.10;;;19.40;87.90;;;;;;5007010;28;20187;-70
2022/04/09 06:53:51;;;;;;;13.13;5.63;;;19.40;88.50;;;;;;5024182;28;20084;-70
2022/04/09 06:56:17;;;;;;;11.57;5.00;;;19.40;85.80;;;;;;5015341;28;20068;-69
2022/04/09 06:58:43;;;;;;;13.63;6.20;;;19.40;84.70;;;;;;5010490;28;20045;-73
2022/04/09 07:01:10;;;;;;;11.50;6.00;;;19.30;86.90;;;;;;5040414;28;20048;-74
2022/04/09 07:03:39;;;;;;;8.85;4.60;;;19.40;85.50;;;;;;5034309;28;20151;-73
2022/04/09 07:06:07;;;;;;;8.55;4.10;;;19.50;87.50;;;;;;5038579;28;20495;-73
2022/04/09 07:08:36;;;;;;;9.52;4.03;;;19.50;84.40;;;;;;5010589;28;20036;-74
2022/04/09 07:11:02;;;;;;;13.35;5.32;;;19.50;83.70;;;;;;5008352;28;20029;-72
2022/04/09 07:13:29;;;;;;;13.23;5.97;;;19.60;83.30;;;;;;5029476;28;20030;-73
2022/04/09 07:15:57;;;;;;;11.35;4.07;;;19.80;83.50;;;;;;5035076;28;20033;-73
2022/04/09 07:18:26;;;;;;;8.10;4.47;;;19.90;84.20;;;;;;5024676;28;20040;-73
2022/04/09 07:20:52;;;;;;;11.63;4.32;;;20.00;84.30;;;;;;5042243;28;20128;-71
2022/04/09 07:23:23;;;;;;;7.03;3.83;;;20.20;81.30;;;;;;5033283;28;20047;-73
2022/04/09 07:25:52;;;;;;;7.78;3.50;;;20.30;80.80;;;;;;4990826;28;20483;-73
2022/04/09 07:28:18;;;;;;;10.57;4.53;;;20.50;79.30;;;;;;5012067;28;20082;-73
2022/04/09 07:30:44;;;;;;;9.38;4.47;;;20.90;80.80;;;;;;5013119;28;20446;-73
2022/04/09 07:33:10;;;;;;;15.73;6.50;;;21.00;78.90;;;;;;5012323;28;20041;-70
2022/04/09 07:35:36;;;;;;;13.98;6.25;;;21.00;76.80;;;;;;5012363;28;20029;-70
2022/04/09 07:38:03;;;;;;;10.57;6.15;;;21.00;74.90;;;;;;5011600;28;20038;-72
2022/04/09 07:40:29;;;;;;;13.13;6.63;;;20.90;75.40;;;;;;5012752;28;20488;-72
2022/04/09 07:42:58;;;;;;;10.15;3.45;;;20.90;74.70;;;;;;5012824;28;20088;-71
2022/04/09 07:45:26;;;;;;;9.45;3.53;;;20.80;73.40;;;;;;5028000;28;20384;-72
2022/04/09 07:47:55;;;;;;;13.75;2.90;;;20.90;73.90;;;;;;5012362;28;20067;-68
2022/04/09 07:50:21;;;;;;;21.20;3.63;;;21.10;74.20;;;;;;5012114;28;20064;-70
2022/04/09 07:52:47;;;;;;;7.28;2.90;;;21.30;73.00;;;;;;5011814;28;20030;-70
2022/04/09 07:55:19;;;;;;;9.65;3.08;;;21.20;71.30;;;;;;5011803;28;20037;-71
2022/04/09 07:57:47;;;;;;;6.90;3.28;;;21.40;71.80;;;;;;5010997;28;20117;-69
2022/04/09 08:00:15;;;;;;;11.02;3.80;;;21.60;72.70;;;;;;5012649;28;20034;-71
2022/04/09 08:02:42;;;;;;;8.40;3.78;;;22.00;71.10;;;;;;5012225;28;20109;-71
2022/04/09 08:05:14;;;;;;;7.55;3.38;;;22.20;72.00;;;;;;5010348;28;20194;-71
2022/04/09 08:07:45;;;;;;;8.85;3.92;;;22.50;70.50;;;;;;5013303;28;20037;-72
2022/04/09 08:10:12;;;;;;;9.88;3.22;;;22.50;69.40;;;;;;5023895;28;20030;-71
2022/04/09 08:12:38;;;;;;;5.47;2.90;;;22.10;68.90;;;;;;5011559;28;20053;-71
2022/04/09 08:15:20;;;;;;;5.18;2.65;;;21.80;68.40;;;;;;5011672;28;20125;-71
2022/04/09 08:17:47;;;;;;;5.88;3.05;;;21.80;69.10;;;;;;5000961;28;20026;-71
2022/04/09 08:20:23;;;;;;;6.20;1.90;;;22.20;69.00;;;;;;5012120;28;20037;-71
2022/04/09 08:22:50;;;;;;;6.07;2.70;;;22.00;66.90;;;;;;5011216;28;20029;-71
2022/04/09 08:25:19;;;;;;;4.15;2.17;;;22.00;67.30;;;;;;5010934;28;20181;-72
2022/04/09 08:27:49;;;;;;;7.25;2.50;;;22.30;67.20;;;;;;5009130;28;20080;-69
2022/04/09 08:30:33;;;;;;;9.18;2.28;;;22.00;65.90;;;;;;5006270;28;20056;-71
2022/04/09 08:33:05;;;;;;;4.10;1.85;;;22.10;67.10;;;;;;5011555;28;21005;-70
2022/04/09 08:35:34;;;;;;;6.20;2.30;;;22.20;67.00;;;;;;5001077;28;20034;-70
2022/04/09 08:38:11;;;;;;;7.57;2.13;;;22.00;66.10;;;;;;4999967;28;20034;-67
2022/04/09 08:40:38;;;;;;;7.28;2.15;;;22.00;65.10;;;;;;5010819;28;20407;-69
2022/04/09 08:43:12;;;;;;;7.03;1.83;;;22.10;65.50;;;;;;5011364;28;20038;-70
2022/04/09 08:45:40;;;;;;;7.75;2.22;;;22.20;66.10;;;;;;5011607;28;20060;-70
2022/04/09 08:48:08;;;;;;;6.30;2.13;;;22.00;64.00;;;;;;5011350;28;20026;-70
2022/04/09 08:50:38;;;;;;;5.53;1.80;;;22.10;65.30;;;;;;5011950;28;20042;-71
2022/04/09 08:53:08;;;;;;;5.45;1.75;;;21.90;64.00;;;;;;5010107;28;20029;-71
2022/04/09 08:55:44;;;;;;;10.98;2.00;;;21.90;65.00;;;;;;5026510;28;20037;-71
2022/04/09 08:58:10;;;;;;;5.53;1.98;;;22.00;65.60;;;;;;5026229;28;20513;-69
2022/04/09 09:00:49;;;;;;;5.43;1.85;;;22.10;65.70;;;;;;5011692;28;20045;-70
2022/04/09 09:03:15;;;;;;;5.30;2.03;;;22.20;64.20;;;;;;5026904;28;20445;-70
2022/04/09 09:05:52;;;;;;;4.90;2.05;;;22.40;65.00;;;;;;5011484;28;20057;-70
2022/04/09 09:08:41;;;;;;;5.30;2.03;;;22.40;63.50;;;;;;5011434;28;20464;-69
2022/04/09 09:11:07;;;;;;;3.47;1.80;;;22.40;64.30;;;;;;5009759;28;20091;-69
2022/04/09 09:13:46;;;;;;;3.20;1.42;;;22.50;64.30;;;;;;5010662;28;20468;-71
2022/04/09 09:16:25;;;;;;;10.45;1.88;;;22.80;63.70;;;;;;5010988;28;20030;-70
2022/04/09 09:19:12;;;;;;;4.20;1.92;;;23.10;63.40;;;;;;5011328;28;20030;-69
2022/04/09 09:21:53;;;;;;;7.38;2.20;;;23.00;61.70;;;;;;5010362;28;20038;-70
2022/04/09 09:24:22;;;;;;;6.93;2.47;;;23.10;63.30;;;;;;5009426;28;20072;-71
2022/04/09 09:27:01;;;;;;;8.95;2.30;;;23.10;63.50;;;;;;5010948;28;20022;-70
2022/04/09 09:29:31;;;;;;;5.32;1.83;;;23.00;62.10;;;;;;5011029;28;20049;-71
2022/04/09 09:32:26;;;;;;;4.03;1.67;;;22.90;61.90;;;;;;5009989;28;20030;-70
2022/04/09 09:34:59;;;;;;;4.53;1.73;;;22.80;60.90;;;;;;5009039;28;20044;-70
2022/04/09 09:37:28;;;;;;;6.38;2.35;;;22.80;61.00;;;;;;5011032;28;20169;-71
2022/04/09 09:40:08;;;;;;;7.07;2.00;;;22.80;61.00;;;;;;5011119;28;20522;-69
2022/04/09 09:42:44;;;;;;;4.32;1.67;;;22.80;61.20;;;;;;4980357;28;20042;-70
2022/04/09 09:45:10;;;;;;;5.80;2.08;;;23.00;61.10;;;;;;5012269;28;20129;-69
2022/04/09 09:47:56;;;;;;;4.32;1.92;;;22.90;61.20;;;;;;5011861;28;20121;-70
2022/04/09 09:50:40;;;;;;;3.95;1.50;;;22.80;60.50;;;;;;5011480;28;20064;-71
2022/04/09 09:53:06;;;;;;;5.22;2.20;;;22.90;61.10;;;;;;5012072;28;20029;-70
2022/04/09 09:55:42;;;;;;;3.20;1.65;;;22.70;60.30;;;;;;5012078;28;20586;-71
2022/04/09 09:58:16;;;;;;;8.68;1.92;;;22.70;60.70;;;;;;5012176;28;20038;-71
2022/04/09 10:00:46;;;;;;;11.27;2.40;;;22.50;60.00;;;;;;5011642;28;20096;-71
2022/04/09 10:06:12;;;;;;;4.18;1.75;;;22.40;61.00;;;;;;5012544;28;20029;-70
2022/04/09 10:08:47;;;;;;;4.72;1.77;;;22.20;59.50;;;;;;5014037;28;20108;-71
2022/04/09 10:11:27;;;;;;;4.38;1.70;;;22.20;60.30;;;;;;5000903;28;20033;-70
2022/04/09 10:13:58;;;;;;;8.48;2.63;;;22.50;60.10;;;;;;5013675;28;20041;-71
2022/04/09 10:16:32;;;;;;;8.30;2.33;;;22.60;60.60;;;;;;5029317;28;20033;-71
2022/04/09 10:19:00;;;;;;;4.70;2.05;;;22.70;59.90;;;;;;5013916;28;20030;-70
2022/04/09 10:21:28;;;;;;;4.65;1.88;;;22.90;59.60;;;;;;5014052;28;20120;-71
2022/04/09 10:23:57;;;;;;;4.82;1.75;;;23.00;59.80;;;;;;5014036;28;20034;-71
2022/04/09 10:26:24;;;;;;;9.60;2.30;;;23.20;60.30;;;;;;5013705;28;20025;-71
2022/04/09 10:28:53;;;;;;;4.65;1.80;;;23.10;60.20;;;;;;5013796;28;20030;-70
2022/04/09 10:31:28;;;;;;;6.30;1.75;;;23.20;60.00;;;;;;5012923;28;20029;-70
2022/04/09 10:33:56;;;;;;;7.75;2.22;;;23.40;60.40;;;;;;4993391;28;20080;-71
2022/04/09 10:36:40;;;;;;;6.78;2.20;;;23.40;58.90;;;;;;5001195;28;20369;-69
2022/04/09 10:39:40;;;;;;;3.03;2.05;;;23.50;59.30;;;;;;5012108;28;20037;-71
2022/04/09 10:42:07;;;;;;;7.55;2.17;;;23.90;59.20;;;;;;5009210;28;20046;-70
2022/04/09 10:44:51;;;;;;;5.00;2.05;;;23.70;58.80;;;;;;5013866;28;20018;-71
2022/04/09 10:47:51;;;;;;;3.75;1.90;;;23.90;58.40;;;;;;4990420;28;20084;-71
2022/04/09 10:50:17;;;;;;;3.88;1.88;;;24.00;59.10;;;;;;5007194;28;20070;-68
2022/04/09 10:52:50;;;;;;;5.22;1.98;;;24.20;58.50;;;;;;5011935;28;20115;-70
2022/04/09 10:55:31;;;;;;;4.40;2.20;;;24.20;56.60;;;;;;5010971;28;20435;-71
2022/04/09 10:58:32;;;;;;;5.20;1.73;;;24.00;56.60;;;;;;5027808;28;20026;-72
2022/04/09 11:01:42;;;;;;;10.35;2.00;;;24.20;57.60;;;;;;5009930;28;20484;-72
2022/04/09 11:04:41;;;;;;;5.72;1.92;;;24.30;58.00;;;;;;5013462;28;20042;-71
2022/04/09 11:07:18;;;;;;;4.10;1.52;;;23.90;56.30;;;;;;5010708;28;20019;-70
2022/04/09 11:09:58;;;;;;;6.85;1.80;;;23.60;55.50;;;;;;4993518;28;20475;-71
2022/04/09 11:12:38;;;;;;;3.20;1.60;;;23.40;56.70;;;;;;4996787;28;20092;-68
2022/04/09 11:15:11;;;;;;;3.42;1.63;;;23.20;56.20;;;;;;5006622;28;20230;-71
2022/04/09 11:17:38;;;;;;;4.88;1.90;;;23.30;56.70;;;;;;4995479;28;20042;-69
2022/04/09 11:20:36;;;;;;;1.98;1.30;;;23.00;56.50;;;;;;5013256;28;20053;-70
2022/04/09 11:23:14;;;;;;;7.13;1.55;;;23.20;56.80;;;;;;4977621;28;20046;-70
2022/04/09 11:25:42;;;;;;;8.50;2.22;;;23.20;56.80;;;;;;5000950;28;20037;-70
2022/04/09 11:28:12;;;;;;;4.72;1.83;;;23.20;57.30;;;;;;5010985;28;20492;-69
2022/04/09 11:30:51;;;;;;;5.68;2.17;;;23.20;57.60;;;;;;5006114;28;20064;-69
2022/04/09 11:33:17;;;;;;;6.53;1.40;;;23.20;57.60;;;;;;4991101;28;20042;-69
2022/04/09 11:35:43;;;;;;;4.50;1.77;;;23.10;56.00;;;;;;5004113;28;20099;-67
2022/04/09 11:38:11;;;;;;;4.50;1.65;;;23.10;57.40;;;;;;4990536;28;20546;-68
2022/04/09 11:40:46;;;;;;;11.27;5.20;;;22.90;56.50;;;;;;5012227;28;20579;-69
2022/04/09 11:43:16;;;;;;;9.25;5.60;;;22.70;56.60;;;;;;5009124;28;20033;-69
2022/04/09 11:45:44;;;;;;;5.63;2.42;;;22.70;57.30;;;;;;5009687;28;20506;-69
2022/04/09 11:48:17;;;;;;;3.80;1.92;;;22.50;56.90;;;;;;5008766;28;20117;-70
2022/04/09 11:50:45;;;;;;;6.10;2.90;;;22.40;57.00;;;;;;5009916;28;20452;-68
2022/04/09 11:53:21;;;;;;;7.10;2.28;;;22.40;57.30;;;;;;4995234;28;20039;-70
2022/04/09 11:55:58;;;;;;;5.07;1.67;;;22.40;57.40;;;;;;4998635;28;20078;-67
2022/04/09 11:58:31;;;;;;;8.00;1.92;;;22.30;57.70;;;;;;4978167;28;20061;-67
2022/04/09 12:00:57;;;;;;;5.60;2.13;;;22.30;58.20;;;;;;5003532;28;20062;-70
2022/04/09 12:03:23;;;;;;;9.65;2.33;;;22.20;58.00;;;;;;4987478;28;20034;-69
2022/04/09 12:05:51;;;;;;;7.90;2.50;;;22.30;58.60;;;;;;4992666;28;20027;-70
2022/04/09 12:08:23;;;;;;;5.63;2.13;;;22.30;58.50;;;;;;4992346;28;20034;-68
2022/04/09 12:10:53;;;;;;;5.47;2.00;;;22.10;58.10;;;;;;4989063;28;20026;-69
2022/04/09 12:13:36;;;;;;;10.48;2.50;;;22.10;57.70;;;;;;4981921;28;20073;-71
2022/04/09 12:16:16;;;;;;;4.90;2.55;;;22.10;57.90;;;;;;4972180;28;20030;-68
2022/04/09 12:18:43;;;;;;;4.80;1.88;;;22.10;58.60;;;;;;4980514;28;20023;-69
2022/04/09 12:21:21;;;;;;;4.93;2.22;;;22.10;57.60;;;;;;4992283;28;20042;-68
2022/04/09 12:24:00;;;;;;;6.80;2.10;;;22.30;58.50;;;;;;4991021;28;20053;-68
2022/04/09 12:26:29;;;;;;;10.88;2.15;;;22.20;57.00;;;;;;4991248;28;20030;-69
2022/04/09 12:29:08;;;;;;;3.05;1.88;;;22.20;58.10;;;;;;4984668;28;20034;-70
2022/04/09 12:31:53;;;;;;;4.57;1.60;;;22.30;58.10;;;;;;4972034;28;20029;-69
2022/04/09 12:34:33;;;;;;;4.43;1.70;;;22.30;57.40;;;;;;4984272;28;20035;-69
2022/04/09 12:37:04;;;;;;;8.23;2.13;;;22.30;58.00;;;;;;4985851;28;20051;-71
2022/04/09 12:39:33;;;;;;;2.35;1.77;;;22.20;58.90;;;;;;4983281;28;20030;-70
2022/04/09 12:41:59;;;;;;;4.63;2.05;;;22.10;57.80;;;;;;4972618;28;20057;-68
2022/04/09 12:44:37;;;;;;;7.47;1.88;;;22.00;57.60;;;;;;4971062;28;20559;-69
2022/04/09 12:47:09;;;;;;;4.22;2.35;;;21.90;57.80;;;;;;4971509;28;20026;-68
2022/04/09 12:49:37;;;;;;;26.38;3.80;;;21.70;58.00;;;;;;5006706;28;20060;-70
2022/04/09 12:52:12;;;;;;;31.52;4.75;;;20.70;60.40;;;;;;5011065;28;20026;-68
2022/04/09 12:55:20;;;;;;;20.13;3.17;;;17.50;69.60;;;;;;5010282;28;20104;-70
2022/04/09 12:57:46;;;;;;;16.27;2.70;;;15.40;87.50;;;;;;4998198;28;20480;-70
2022/04/09 13:00:13;;;;;;;8.20;2.38;;;14.70;99.90;;;;;;5008696;28;20036;-68
2022/04/09 13:02:41;;;;;;;8.77;2.40;;;14.20;99.90;;;;;;5004795;28;20021;-71
2022/04/09 13:05:08;;;;;;;5.57;2.40;;;13.70;99.90;;;;;;5006382;28;20056;-70
2022/04/09 13:07:34;;;;;;;14.48;2.55;;;13.40;99.90;;;;;;4998350;28;20026;-67
2022/04/09 13:09:59;;;;;;;16.38;2.38;;;13.30;99.90;;;;;;5005267;28;20645;-67